createdAt,value
2019-05-07T00:01:13.886Z,11.43
2019-05-07T00:03:42.011Z,14.37
2019-05-07T00:06:08.367Z,13.07
2019-05-07T00:08:34.546Z,15.00
2019-05-07T00:11:02.330Z,17.10
2019-05-07T00:13:28.734Z,11.83
2019-05-07T00:15:54.901Z,14.30
2019-05-07T00:18:22.926Z,16.53
2019-05-07T00:20:49.274Z,13.30
2019-05-07T00:23:15.459Z,17.00
2019-05-07T00:25:42.155Z,17.90
2019-05-07T00:28:08.542Z,14.40
2019-05-07T00:30:34.710Z,19.17
2019-05-07T00:33:02.737Z,19.33
2019-05-07T00:35:32.417Z,17.10
2019-05-07T00:38:02.525Z,17.33
2019-05-07T00:40:28.801Z,14.83
2019-05-07T00:42:56.877Z,17.13
2019-05-07T00:45:24.959Z,13.20
2019-05-07T00:47:52.096Z,16.37
2019-05-07T00:50:22.415Z,16.30
2019-05-07T00:52:48.323Z,16.63
2019-05-07T00:55:14.491Z,14.67
2019-05-07T00:57:42.757Z,14.23
2019-05-07T01:00:08.978Z,20.20
2019-05-07T01:02:36.218Z,17.27
2019-05-07T01:05:03.156Z,18.23
2019-05-07T01:07:29.514Z,18.73
2019-05-07T01:09:55.698Z,17.53
2019-05-07T01:12:22.338Z,24.77
2019-05-07T01:14:48.682Z,17.13
2019-05-07T01:17:14.854Z,20.50
2019-05-07T01:19:42.306Z,21.30
2019-05-07T01:22:08.750Z,20.80
2019-05-07T01:24:35.218Z,20.20
2019-05-07T01:27:02.197Z,17.63
2019-05-07T01:29:28.693Z,25.43
2019-05-07T01:31:56.769Z,23.90
2019-05-07T01:34:24.882Z,19.23
2019-05-07T01:36:52.392Z,23.37
2019-05-07T01:39:18.730Z,22.50
2019-05-07T01:41:45.135Z,19.80
2019-05-07T01:44:12.849Z,18.63
2019-05-07T01:46:39.285Z,18.90
2019-05-07T01:49:05.615Z,20.67
2019-05-07T01:51:32.652Z,19.73
2019-05-07T01:53:59.068Z,20.80
2019-05-07T01:56:25.382Z,22.47
2019-05-07T01:58:52.771Z,22.97
2019-05-07T02:01:19.225Z,21.93
2019-05-07T02:03:47.820Z,22.17
2019-05-07T02:06:15.898Z,17.80
2019-05-07T02:08:43.966Z,22.20
2019-05-07T02:11:12.869Z,20.60
2019-05-07T02:13:39.282Z,20.47
2019-05-07T02:16:05.453Z,22.47
2019-05-07T02:18:32.564Z,22.33
2019-05-07T02:20:59.643Z,20.23
2019-05-07T02:23:25.922Z,21.30
2019-05-07T02:25:52.657Z,24.33
2019-05-07T02:28:18.898Z,22.33
2019-05-07T02:30:45.171Z,22.93
2019-05-07T02:33:13.720Z,24.07
2019-05-07T02:35:39.843Z,24.20
2019-05-07T02:38:08.013Z,24.10
2019-05-07T02:40:36.121Z,25.43
2019-05-07T02:43:03.051Z,24.23
2019-05-07T02:45:33.200Z,26.43
2019-05-07T02:47:59.520Z,21.93
2019-05-07T02:50:27.603Z,25.80
2019-05-07T02:52:55.678Z,25.90
2019-05-07T02:55:24.079Z,23.90
2019-05-07T02:57:53.633Z,26.10
2019-05-07T03:00:19.492Z,21.47
2019-05-07T03:02:46.054Z,21.17
2019-05-07T03:05:13.765Z,20.47
2019-05-07T03:07:42.553Z,24.13
2019-05-07T03:10:08.170Z,27.67
2019-05-07T03:12:34.351Z,27.80
2019-05-07T03:15:04.067Z,25.60
2019-05-07T03:17:28.530Z,22.07
2019-05-07T03:19:55.979Z,25.87
2019-05-07T03:22:23.189Z,23.17
2019-05-07T03:24:52.974Z,23.57
2019-05-07T03:27:19.495Z,25.87
2019-05-07T03:29:47.584Z,27.60
2019-05-07T03:32:16.445Z,25.90
2019-05-07T03:34:46.733Z,28.37
2019-05-07T03:37:14.506Z,32.93
2019-05-07T03:39:43.267Z,24.90
2019-05-07T03:42:08.946Z,25.87
2019-05-07T03:44:35.231Z,26.50
2019-05-07T03:47:06.450Z,29.53
2019-05-07T03:49:34.152Z,26.70
2019-05-07T03:52:03.888Z,31.10
2019-05-07T03:54:28.995Z,35.93
2019-05-07T03:56:55.542Z,30.43
2019-05-07T03:59:23.073Z,31.70
2019-05-07T04:01:49.823Z,26.47
2019-05-07T04:04:16.072Z,32.13
2019-05-07T04:06:43.420Z,26.90
2019-05-07T04:09:12.743Z,26.87
2019-05-07T04:11:37.880Z,27.60
2019-05-07T04:14:04.069Z,30.40
2019-05-07T04:16:33.023Z,24.13
2019-05-07T04:18:58.246Z,25.17
2019-05-07T04:21:24.418Z,26.13
2019-05-07T04:23:54.170Z,28.90
2019-05-07T04:26:23.254Z,25.07
2019-05-07T04:28:53.962Z,24.73
2019-05-07T04:31:22.758Z,25.70
2019-05-07T04:33:48.211Z,30.20
2019-05-07T04:36:16.282Z,28.60
2019-05-07T04:38:43.991Z,22.70
2019-05-07T04:41:13.597Z,32.73
2019-05-07T04:43:38.742Z,26.17
2019-05-07T04:46:04.943Z,30.27
2019-05-07T04:48:33.762Z,26.37
2019-05-07T04:51:03.504Z,30.00
2019-05-07T04:53:29.370Z,31.40
2019-05-07T04:55:55.543Z,27.10
2019-05-07T04:58:23.990Z,34.33
2019-05-07T05:00:50.036Z,25.80
2019-05-07T05:03:18.114Z,29.73
2019-05-07T05:05:44.390Z,31.70
2019-05-07T05:08:13.469Z,28.07
2019-05-07T05:10:39.271Z,29.07
2019-05-07T05:13:05.451Z,31.93
2019-05-07T05:15:32.147Z,28.13
2019-05-07T05:17:58.634Z,30.93
2019-05-07T05:20:26.702Z,25.87
2019-05-07T05:22:54.812Z,25.97
2019-05-07T05:25:22.893Z,23.50
2019-05-07T05:27:49.058Z,33.37
2019-05-07T05:30:21.875Z,22.73
2019-05-07T05:32:47.879Z,26.83
2019-05-07T05:35:14.055Z,34.10
2019-05-07T05:37:42.772Z,31.10
2019-05-07T05:40:09.127Z,30.27
2019-05-07T05:42:37.290Z,32.57
2019-05-07T05:45:04.660Z,26.50
2019-05-07T05:47:32.849Z,25.60
2019-05-07T05:49:58.978Z,27.67
2019-05-07T05:52:27.090Z,29.50
2019-05-07T05:54:55.190Z,25.43
2019-05-07T05:57:23.274Z,27.67
2019-05-07T05:59:54.578Z,20.43
2019-05-07T06:02:22.766Z,24.13
2019-05-07T06:04:52.827Z,23.23
2019-05-07T06:07:22.684Z,25.33
2019-05-07T06:09:52.762Z,25.87
2019-05-07T06:12:22.141Z,22.97
2019-05-07T06:14:50.335Z,29.93
2019-05-07T06:17:18.411Z,27.80
2019-05-07T06:19:46.536Z,24.93
2019-05-07T06:22:16.824Z,23.27
2019-05-07T06:24:45.185Z,23.87
2019-05-07T06:27:12.283Z,24.40
2019-05-07T06:29:38.655Z,27.17
2019-05-07T06:32:06.735Z,30.77
2019-05-07T06:34:34.222Z,22.57
2019-05-07T06:37:02.315Z,23.27
2019-05-07T06:39:32.689Z,21.60
2019-05-07T06:42:02.048Z,22.37
2019-05-07T06:44:28.475Z,24.60
2019-05-07T06:46:54.720Z,27.77
2019-05-07T06:49:22.271Z,24.37
2019-05-07T06:51:48.655Z,24.03
2019-05-07T06:54:14.834Z,27.20
2019-05-07T06:56:42.122Z,29.13
2019-05-07T06:59:12.817Z,21.03
2019-05-07T07:01:42.323Z,24.30
2019-05-07T07:04:10.283Z,25.77
2019-05-07T07:06:38.586Z,23.97
2019-05-07T07:09:07.166Z,20.97
2019-05-07T07:11:35.749Z,20.20
2019-05-07T07:14:02.684Z,22.87
2019-05-07T07:16:28.942Z,16.73
2019-05-07T07:18:55.876Z,24.07
2019-05-07T07:21:22.326Z,22.10
2019-05-07T07:23:48.490Z,23.47
2019-05-07T07:26:14.662Z,26.27
2019-05-07T07:28:48.475Z,24.07
2019-05-07T07:31:25.966Z,23.77
2019-05-07T07:33:57.890Z,19.87
2019-05-07T07:36:26.510Z,22.30
2019-05-07T07:38:53.230Z,24.83
2019-05-07T07:41:22.242Z,20.30
2019-05-07T07:43:48.715Z,24.40
2019-05-07T07:46:16.597Z,20.77
2019-05-07T07:48:43.655Z,21.57
2019-05-07T07:51:10.104Z,23.70
2019-05-07T07:53:36.309Z,16.67
2019-05-07T07:56:04.486Z,18.00
2019-05-07T07:58:34.265Z,17.57
2019-05-07T08:01:02.886Z,17.53
2019-05-07T08:03:29.770Z,64.30
2019-05-07T08:05:57.181Z,22.47
2019-05-07T08:08:23.579Z,15.80
2019-05-07T08:10:51.858Z,14.47
2019-05-07T08:13:18.302Z,22.07
2019-05-07T08:15:44.588Z,18.97
2019-05-07T08:18:11.999Z,20.73
2019-05-07T08:20:38.385Z,18.63
2019-05-07T08:23:04.554Z,14.47
2019-05-07T08:25:32.812Z,19.83
2019-05-07T08:27:59.190Z,15.20
2019-05-07T08:30:27.270Z,19.50
2019-05-07T08:32:55.394Z,14.67
2019-05-07T08:35:23.470Z,20.10
2019-05-07T08:37:51.737Z,14.50
2019-05-07T08:40:17.742Z,30.63
2019-05-07T08:42:44.235Z,23.93
2019-05-07T08:45:12.857Z,17.23
2019-05-07T08:47:39.113Z,13.40
2019-05-07T08:50:05.498Z,15.63
2019-05-07T08:52:32.710Z,17.53
2019-05-07T08:54:59.254Z,14.53
2019-05-07T08:57:25.422Z,10.70
2019-05-07T09:00:00.328Z,13.90
2019-05-07T09:02:21.789Z,12.47
2019-05-07T09:04:47.776Z,12.20
2019-05-07T09:07:13.944Z,13.67
2019-05-07T09:09:42.456Z,16.83
2019-05-07T09:12:08.231Z,17.10
2019-05-07T09:14:34.842Z,12.03
2019-05-07T09:17:02.546Z,9.97
2019-05-07T09:19:32.199Z,12.57
2019-05-07T09:22:01.906Z,11.60
2019-05-07T09:24:26.800Z,11.73
2019-05-07T09:26:52.987Z,11.43
2019-05-07T09:29:22.159Z,8.17
2019-05-07T09:31:48.574Z,5.17
2019-05-07T09:34:14.850Z,8.70
2019-05-07T09:36:43.041Z,11.73
2019-05-07T09:39:09.323Z,7.70
2019-05-07T09:41:35.507Z,8.40
2019-05-07T09:44:03.170Z,11.37
2019-05-07T09:46:29.666Z,13.40
2019-05-07T09:48:55.837Z,8.87
2019-05-07T09:51:22.673Z,11.03
2019-05-07T09:53:49.202Z,9.70
2019-05-07T09:56:15.370Z,9.47
2019-05-07T09:58:42.570Z,14.20
2019-05-07T10:01:09.154Z,10.23
2019-05-07T10:03:36.197Z,6.30
2019-05-07T10:06:02.454Z,10.57
2019-05-07T10:08:31.824Z,10.97
2019-05-07T10:10:58.535Z,7.00
2019-05-07T10:13:26.586Z,6.80
2019-05-07T10:15:54.667Z,8.57
2019-05-07T10:18:22.710Z,8.83
2019-05-07T10:20:49.054Z,9.43
2019-05-07T10:23:17.263Z,8.57
2019-05-07T10:25:43.983Z,15.17
2019-05-07T10:28:12.355Z,9.03
2019-05-07T10:30:38.403Z,8.63
2019-05-07T10:33:04.561Z,30.73
2019-05-07T10:35:31.687Z,8.70
2019-05-07T10:37:58.742Z,5.70
2019-05-07T10:40:24.910Z,6.47
2019-05-07T10:42:51.912Z,7.93
2019-05-07T10:45:21.886Z,7.43
2019-05-07T10:47:52.020Z,6.13
2019-05-07T10:50:21.952Z,8.57
2019-05-07T10:52:46.065Z,7.87
2019-05-07T10:55:12.440Z,8.10
2019-05-07T10:57:39.020Z,9.17
2019-05-07T11:00:05.718Z,8.87
2019-05-07T11:02:32.513Z,16.60
2019-05-07T11:04:58.871Z,6.40
2019-05-07T11:07:25.171Z,7.77
2019-05-07T11:09:52.470Z,5.77
2019-05-07T11:12:19.032Z,10.60
2019-05-07T11:14:45.237Z,8.53
2019-05-07T11:17:13.799Z,7.13
2019-05-07T11:19:41.688Z,45.73
2019-05-07T11:22:07.973Z,8.10
2019-05-07T11:24:34.155Z,8.13
2019-05-07T11:27:02.320Z,6.93
2019-05-07T11:29:28.343Z,7.03
2019-05-07T11:31:54.663Z,5.43
2019-05-07T11:34:22.080Z,9.47
2019-05-07T11:36:48.601Z,7.67
2019-05-07T11:39:15.088Z,8.43
2019-05-07T11:41:43.159Z,6.27
2019-05-07T11:44:12.379Z,5.83
2019-05-07T11:46:41.587Z,5.60
2019-05-07T11:49:11.559Z,5.97
2019-05-07T11:51:42.507Z,7.63
2019-05-07T11:54:09.438Z,11.33
2019-05-07T11:56:36.153Z,8.80
2019-05-07T11:59:02.818Z,9.07
2019-05-07T12:01:41.599Z,8.83
2019-05-07T12:03:57.334Z,5.90
2019-05-07T12:06:23.531Z,9.07
2019-05-07T12:08:51.923Z,8.33
2019-05-07T12:11:17.786Z,10.27
2019-05-07T12:13:44.005Z,7.67
2019-05-07T12:16:13.942Z,7.33
2019-05-07T12:18:38.618Z,9.63
2019-05-07T12:21:17.479Z,9.67
2019-05-07T12:23:33.327Z,5.83
2019-05-07T12:25:59.673Z,7.13
2019-05-07T12:28:26.071Z,9.30
2019-05-07T12:30:54.349Z,8.30
2019-05-07T12:33:22.430Z,7.00
2019-05-07T12:35:48.959Z,7.53
2019-05-07T12:38:15.380Z,11.10
2019-05-07T12:40:41.997Z,8.57
2019-05-07T12:43:10.498Z,10.20
2019-05-07T12:45:36.415Z,10.27
2019-05-07T12:48:02.582Z,6.73
2019-05-07T12:50:28.978Z,9.27
2019-05-07T12:52:57.156Z,9.23
2019-05-07T12:55:25.243Z,13.47
2019-05-07T12:57:51.949Z,9.33
2019-05-07T13:00:20.227Z,13.47
2019-05-07T13:02:48.007Z,8.03
2019-05-07T13:05:14.341Z,9.30
2019-05-07T13:07:41.825Z,13.57
2019-05-07T13:10:08.703Z,11.20
2019-05-07T13:12:35.098Z,6.50
2019-05-07T13:15:02.940Z,8.13
2019-05-07T13:17:29.360Z,9.17
2019-05-07T13:19:55.848Z,11.23
2019-05-07T13:22:22.102Z,9.03
2019-05-07T13:24:48.311Z,11.67
2019-05-07T13:27:14.513Z,9.40
2019-05-07T13:29:42.520Z,7.17
2019-05-07T13:32:09.059Z,9.50
2019-05-07T13:34:35.274Z,10.37
2019-05-07T13:37:03.385Z,9.43
2019-05-07T13:39:32.537Z,11.43
2019-05-07T13:42:02.125Z,11.37
2019-05-07T13:44:31.903Z,13.73
2019-05-07T13:47:01.963Z,12.87
2019-05-07T13:49:28.335Z,12.03
2019-05-07T13:52:03.420Z,15.17
2019-05-07T13:54:22.498Z,19.27
2019-05-07T13:56:48.704Z,12.43
2019-05-07T13:59:14.885Z,15.27
2019-05-07T14:01:42.947Z,14.50
2019-05-07T14:04:09.666Z,19.10
2019-05-07T14:06:39.745Z,14.23
2019-05-07T14:09:10.532Z,10.33
2019-05-07T14:11:37.452Z,13.27
2019-05-07T14:14:03.732Z,16.27
2019-05-07T14:16:29.911Z,13.97
2019-05-07T14:18:57.830Z,13.00
2019-05-07T14:21:25.543Z,14.03
2019-05-07T14:23:52.137Z,12.10
2019-05-07T14:26:18.434Z,11.43
2019-05-07T14:28:44.610Z,12.40
2019-05-07T14:31:12.317Z,13.70
2019-05-07T14:33:41.034Z,14.87
2019-05-07T14:36:09.309Z,12.10
2019-05-07T14:38:38.010Z,10.70
2019-05-07T14:41:05.352Z,15.27
2019-05-07T14:43:33.610Z,13.17
2019-05-07T14:46:02.584Z,16.73
2019-05-07T14:48:28.487Z,13.20
2019-05-07T14:50:54.654Z,12.40
2019-05-07T14:53:22.383Z,14.40
2019-05-07T14:55:49.788Z,15.07
2019-05-07T14:58:16.014Z,12.60
2019-05-07T15:00:43.014Z,14.27
2019-05-07T15:03:12.443Z,14.77
2019-05-07T15:05:39.084Z,13.07
2019-05-07T15:08:10.678Z,14.20
2019-05-07T15:10:33.547Z,14.30
2019-05-07T15:12:59.719Z,11.43
2019-05-07T15:15:25.998Z,11.23
2019-05-07T15:17:54.243Z,13.90
2019-05-07T15:20:22.413Z,13.93
2019-05-07T15:22:52.686Z,12.60
2019-05-07T15:25:18.962Z,12.83
2019-05-07T15:27:46.226Z,13.77
2019-05-07T15:30:12.894Z,12.80
2019-05-07T15:32:39.403Z,13.53
2019-05-07T15:35:05.774Z,14.77
2019-05-07T15:37:32.323Z,16.53
2019-05-07T15:39:58.662Z,17.10
2019-05-07T15:42:24.842Z,15.33
2019-05-07T15:44:52.773Z,17.30
2019-05-07T15:47:22.255Z,13.70
2019-05-07T15:49:48.806Z,16.27
2019-05-07T15:52:16.890Z,9.67
2019-05-07T15:54:43.208Z,18.13
2019-05-07T15:57:12.673Z,15.97
2019-05-07T15:59:39.049Z,17.90
2019-05-07T16:02:07.238Z,13.73
2019-05-07T16:04:33.513Z,15.23
2019-05-07T16:07:02.224Z,14.83
2019-05-07T16:09:32.628Z,20.40
2019-05-07T16:11:59.601Z,16.93
2019-05-07T16:14:26.699Z,16.90
2019-05-07T16:16:55.305Z,14.03
2019-05-07T16:19:23.386Z,17.57
2019-05-07T16:21:49.666Z,13.60
2019-05-07T16:24:18.010Z,18.20
2019-05-07T16:26:44.190Z,19.13
2019-05-07T16:29:10.396Z,14.47
2019-05-07T16:31:36.719Z,13.70
2019-05-07T16:34:02.869Z,12.80
2019-05-07T16:36:29.037Z,16.87
2019-05-07T16:38:55.331Z,16.47
2019-05-07T16:41:22.313Z,12.93
2019-05-07T16:43:48.682Z,12.47
2019-05-07T16:46:15.095Z,17.17
2019-05-07T16:48:43.573Z,18.63
2019-05-07T16:51:09.242Z,18.30
2019-05-07T16:53:35.460Z,12.97
2019-05-07T16:56:02.917Z,15.03
2019-05-07T16:58:34.490Z,22.13
2019-05-07T17:01:01.111Z,13.47
2019-05-07T17:03:29.254Z,15.40
2019-05-07T17:05:55.534Z,14.27
2019-05-07T17:08:23.718Z,16.00
2019-05-07T17:10:52.257Z,17.13
2019-05-07T17:13:18.166Z,14.17
2019-05-07T17:15:46.277Z,16.20
2019-05-07T17:18:12.567Z,17.03
2019-05-07T17:20:38.754Z,17.33
2019-05-07T17:23:04.946Z,15.53
2019-05-07T17:25:33.484Z,16.60
2019-05-07T17:27:59.730Z,13.57
2019-05-07T17:30:26.133Z,17.37
2019-05-07T17:32:52.628Z,15.30
2019-05-07T17:35:18.882Z,14.57
2019-05-07T17:37:45.082Z,14.83
2019-05-07T17:40:12.665Z,20.33
2019-05-07T17:42:38.826Z,21.87
2019-05-07T17:45:05.531Z,13.50
2019-05-07T17:47:32.213Z,18.63
2019-05-07T17:49:58.982Z,19.87
2019-05-07T17:52:25.171Z,16.30
2019-05-07T17:54:52.747Z,17.10
2019-05-07T17:57:19.014Z,20.70
2019-05-07T17:59:45.226Z,16.17
2019-05-07T18:02:13.302Z,20.43
2019-05-07T18:04:50.462Z,14.97
2019-05-07T18:07:08.177Z,16.73
2019-05-07T18:09:34.352Z,18.37
2019-05-07T18:12:00.719Z,24.33
2019-05-07T18:14:27.072Z,20.83
2019-05-07T18:16:55.254Z,20.13
2019-05-07T18:19:22.236Z,17.93
2019-05-07T18:21:48.637Z,15.80
2019-05-07T18:24:16.800Z,20.00
2019-05-07T18:26:43.326Z,23.10
2019-05-07T18:29:11.806Z,16.27
2019-05-07T18:31:39.526Z,16.23
2019-05-07T18:34:05.806Z,24.40
2019-05-07T18:36:32.102Z,20.27
2019-05-07T18:38:58.279Z,18.83
2019-05-07T18:41:24.464Z,15.13
2019-05-07T18:43:54.378Z,17.30
2019-05-07T18:46:18.640Z,17.97
2019-05-07T18:48:44.814Z,16.60
2019-05-07T18:51:12.184Z,16.33
2019-05-07T18:53:38.558Z,28.03
2019-05-07T18:56:04.739Z,21.87
2019-05-07T18:58:31.949Z,19.63
2019-05-07T19:01:02.516Z,20.20
2019-05-07T19:03:28.302Z,18.27
2019-05-07T19:05:54.999Z,21.23
2019-05-07T19:08:22.908Z,21.20
2019-05-07T19:10:49.557Z,21.37
2019-05-07T19:13:15.858Z,24.17
2019-05-07T19:15:42.135Z,17.83
2019-05-07T19:18:08.551Z,19.13
2019-05-07T19:20:34.950Z,23.30
2019-05-07T19:23:02.694Z,16.80
2019-05-07T19:25:29.005Z,23.60
2019-05-07T19:27:56.521Z,22.13
2019-05-07T19:30:22.986Z,20.87
2019-05-07T19:32:49.162Z,17.77
2019-05-07T19:35:15.463Z,18.13
2019-05-07T19:37:42.572Z,27.73
2019-05-07T19:40:08.823Z,22.43
2019-05-07T19:42:35.018Z,23.53
2019-05-07T19:45:02.617Z,16.90
2019-05-07T19:47:29.059Z,18.23
2019-05-07T19:49:55.334Z,27.10
2019-05-07T19:52:23.090Z,18.83
2019-05-07T19:55:00.468Z,21.43
2019-05-07T19:57:21.113Z,17.10
2019-05-07T19:59:47.794Z,22.17
2019-05-07T20:02:15.878Z,21.20
2019-05-07T20:04:42.736Z,22.13
2019-05-07T20:07:09.051Z,19.03
2019-05-07T20:09:37.230Z,21.23
2019-05-07T20:12:03.531Z,21.00
2019-05-07T20:14:29.706Z,24.27
2019-05-07T20:16:55.974Z,20.23
2019-05-07T20:19:23.095Z,21.87
2019-05-07T20:21:49.338Z,22.83
2019-05-07T20:24:15.607Z,16.37
2019-05-07T20:26:43.017Z,21.60
2019-05-07T20:29:12.344Z,17.73
2019-05-07T20:31:38.678Z,19.27
2019-05-07T20:34:04.891Z,20.07
2019-05-07T20:36:32.809Z,18.07
2019-05-07T20:38:59.046Z,30.17
2019-05-07T20:41:25.250Z,24.23
2019-05-07T20:43:52.379Z,20.47
2019-05-07T20:46:18.697Z,23.47
2019-05-07T20:48:44.891Z,20.87
2019-05-07T20:51:12.527Z,20.93
2019-05-07T20:53:42.303Z,21.80
2019-05-07T20:56:09.141Z,16.90
2019-05-07T20:58:35.306Z,22.27
2019-05-07T21:01:02.929Z,21.07
2019-05-07T21:03:29.258Z,16.97
2019-05-07T21:05:55.448Z,20.70
2019-05-07T21:08:22.715Z,18.87
2019-05-07T21:10:49.286Z,20.27
2019-05-07T21:13:27.416Z,16.73
2019-05-07T21:15:43.848Z,17.00
2019-05-07T21:18:12.264Z,20.33
2019-05-07T21:20:38.551Z,22.37
2019-05-07T21:23:04.725Z,26.67
2019-05-07T21:25:42.320Z,21.03
2019-05-07T21:27:59.304Z,17.57
2019-05-07T21:30:25.714Z,17.77
2019-05-07T21:32:51.915Z,18.90
2019-05-07T21:35:18.090Z,18.87
2019-05-07T21:37:44.277Z,20.40
2019-05-07T21:40:12.894Z,23.10
2019-05-07T21:42:38.857Z,19.57
2019-05-07T21:45:06.938Z,20.00
2019-05-07T21:47:33.342Z,20.10
2019-05-07T21:49:59.519Z,19.03
2019-05-07T21:52:27.696Z,23.53
2019-05-07T21:54:55.798Z,19.80
2019-05-07T21:57:23.978Z,18.40
2019-05-07T21:59:54.893Z,21.77
2019-05-07T22:02:22.209Z,18.13
2019-05-07T22:04:48.334Z,20.47
2019-05-07T22:07:14.806Z,21.97
2019-05-07T22:09:41.106Z,19.10
2019-05-07T22:12:07.303Z,20.57
2019-05-07T22:14:33.655Z,22.13
2019-05-07T22:17:01.900Z,16.80
2019-05-07T22:19:27.837Z,20.03
2019-05-07T22:21:54.018Z,23.17
2019-05-07T22:24:22.197Z,20.53
2019-05-07T22:26:48.198Z,23.30
2019-05-07T22:29:14.370Z,20.20
2019-05-07T22:31:44.259Z,20.30
2019-05-07T22:34:12.733Z,23.07
2019-05-07T22:36:38.765Z,22.67
2019-05-07T22:39:05.474Z,19.13
2019-05-07T22:41:31.950Z,23.53
2019-05-07T22:43:58.218Z,20.20
2019-05-07T22:46:24.418Z,21.40
2019-05-07T22:48:50.587Z,19.80
2019-05-07T22:51:16.767Z,20.67
2019-05-07T22:53:42.965Z,18.83
2019-05-07T22:56:09.153Z,19.47
2019-05-07T22:58:37.226Z,19.37
2019-05-07T23:01:05.334Z,21.77
2019-05-07T23:03:32.264Z,20.57
2019-05-07T23:06:02.641Z,20.50
2019-05-07T23:08:28.486Z,22.63
2019-05-07T23:10:55.732Z,19.73
2019-05-07T23:13:22.652Z,19.07
2019-05-07T23:15:49.051Z,22.53
2019-05-07T23:18:15.234Z,21.43
2019-05-07T23:20:42.719Z,21.73
2019-05-07T23:23:09.120Z,21.03
2019-05-07T23:25:35.291Z,18.17
2019-05-07T23:28:02.827Z,24.60
2019-05-07T23:30:29.503Z,20.37
2019-05-07T23:32:55.918Z,23.10
2019-05-07T23:35:22.290Z,27.43
2019-05-07T23:37:48.776Z,23.17
2019-05-07T23:40:16.959Z,18.67
2019-05-07T23:42:45.039Z,20.33
2019-05-07T23:45:12.571Z,27.70
2019-05-07T23:47:38.844Z,27.97
2019-05-07T23:50:05.015Z,22.43
2019-05-07T23:52:31.223Z,20.13
2019-05-07T23:54:57.395Z,18.00
2019-05-07T23:57:23.566Z,23.73
2019-05-07T23:59:49.946Z,27.17
